Accueil
METAR-TAF:

METAR-TAF

Aéroports :

Aéroport de Belfast-George Best

Belfast City, Irlande du Nord

latitude: 54-36N, longitude: 005-53W, altitude: 5 m

Observation

Le bulletin a été fait il y a 26 minutes, à 13:50 UTC
Vent 10 kt de sud-ouest
Température 6°C
Humidité 81%
Pression 1001 hPa
Visibilité 10 km ou plus

METAR: EGAC 261350Z AUTO 22010KT 9999 NCD 06/03 Q1001

Heure: 14:16 (14:16 UTC)

Prévision

Le bulletin a été fait il y a 3 heures et 15 minutes, à 11:01 UTC
Prévision valable du 26 à 12 UTC au 26 à 21 UTC
Vent 12 kt de ouest/sud-ouest
Visibilité 10 km ou plus
Nuages épars à une hauteur de 2000 ft
Probabilité 30% :
Temporairement
du 26 à 12 UTC au 26 à 14 UTC
Visibilité: 8000 m
faibles averses de pluie
Evoluant progressivement
du 26 à 16 UTC au 26 à 20 UTC
Vent 9 kt de sud

TAF: EGAC 261101Z 2612/2621 25012KT 9999 SCT020 PROB30 TEMPO 2612/2614 8000 -SHRA BECMG 2616/2620 18009KT

Observations et prévisions météorologiques de plus de 4000 aéroports (messages METAR et TAF).

Les stations disponibles sont représentées par des disques jaunes et rouges sur la carte.

Passer la souris dessus pour voir le nom de la station.

Cliquer dessus pour voir les observations et prévisions météorologiques.

Pour changer de carte: cliquez sur les boutons verts avec une croix noire pour zoomer, sur le bouton vert avec un tiret pour effectuer un zoom arrière, ou sur les flèches vertes pour les cartes adjacentes.


METAR-TAF: